Time;durP1;ratioP1;P1;durP2;ratioP2;P2;SDS_P1;SDS_P2;PMS_P1;PMS_P2;Temp;Humidity;BMP_temperature;BMP_pressure;BME280_temperature;BME280_humidity;BME280_pressure;Samples;Min_cycle;Max_cycle;Signal;HPM_P1;HPM_P2
2021/12/15 00:01:42;;;;;;;50.80;21.43;;;6.40;99.90;;;;;;4893798;29;20475;-77
2021/12/15 00:04:08;;;;;;;36.50;18.87;;;6.40;99.90;;;;;;4893582;29;20459;-77
2021/12/15 00:06:34;;;;;;;43.07;20.77;;;6.40;99.90;;;;;;4894264;29;20438;-78
2021/12/15 00:09:02;;;;;;;39.83;20.10;;;6.40;99.90;;;;;;4894248;29;20424;-76
2021/12/15 00:11:35;;;;;;;39.87;18.80;;;6.40;99.90;;;;;;4894146;29;20545;-77
2021/12/15 00:14:02;;;;;;;35.93;18.37;;;6.40;99.90;;;;;;4892794;29;20451;-76
2021/12/15 00:16:28;;;;;;;45.07;20.20;;;6.40;99.90;;;;;;4893841;29;20436;-77
2021/12/15 00:18:54;;;;;;;40.60;18.30;;;6.40;99.90;;;;;;4894066;29;20476;-77
2021/12/15 00:21:20;;;;;;;40.80;19.37;;;6.30;99.90;;;;;;4895641;29;20332;-75
2021/12/15 00:23:48;;;;;;;35.43;18.00;;;6.40;99.90;;;;;;4898001;29;20190;-77
2021/12/15 00:26:16;;;;;;;42.33;20.63;;;6.40;99.90;;;;;;4897428;29;20464;-76
2021/12/15 00:28:43;;;;;;;46.47;19.97;;;6.40;99.90;;;;;;4899261;29;20444;-77
2021/12/15 00:31:09;;;;;;;40.70;19.00;;;6.40;99.90;;;;;;4900791;29;20461;-77
2021/12/15 00:33:36;;;;;;;41.13;18.67;;;6.40;99.90;;;;;;4897509;29;20923;-78
2021/12/15 00:36:03;;;;;;;38.67;17.87;;;6.40;99.90;;;;;;4898694;29;20416;-77
2021/12/15 00:38:29;;;;;;;35.23;17.70;;;6.40;99.90;;;;;;4898623;29;20568;-77
2021/12/15 00:40:54;;;;;;;37.27;18.60;;;6.40;99.90;;;;;;4898002;29;21166;-78
2021/12/15 00:43:20;;;;;;;34.20;16.97;;;6.40;99.90;;;;;;4897659;29;20183;-76
2021/12/15 00:45:46;;;;;;;36.73;17.70;;;6.30;99.90;;;;;;4898867;29;20191;-78
2021/12/15 00:48:13;;;;;;;31.50;17.37;;;6.40;99.90;;;;;;4898486;29;20187;-77
2021/12/15 00:50:39;;;;;;;45.33;19.20;;;6.40;99.90;;;;;;4899155;29;20253;-76
2021/12/15 00:53:05;;;;;;;36.63;19.23;;;6.40;99.90;;;;;;4898558;29;20789;-77
2021/12/15 00:55:31;;;;;;;34.93;17.43;;;6.40;99.90;;;;;;4898406;29;20431;-78
2021/12/15 00:57:58;;;;;;;48.00;19.43;;;6.40;99.90;;;;;;4897931;29;20431;-77
2021/12/15 05:32:55;;;;;;;23.53;14.80;;;6.40;99.90;;;;;;4983375;23;21063;-76
2021/12/15 05:35:23;;;;;;;25.20;14.63;;;6.40;99.90;;;;;;4898523;29;20508;-78
2021/12/15 05:37:51;;;;;;;26.90;14.30;;;6.40;99.90;;;;;;4898879;29;20177;-76
2021/12/15 05:40:17;;;;;;;24.23;14.87;;;6.40;99.90;;;;;;4898885;29;20440;-74
2021/12/15 05:42:46;;;;;;;24.80;16.27;;;6.40;99.90;;;;;;4898221;29;20475;-77
2021/12/15 05:45:12;;;;;;;30.57;15.60;;;6.50;99.90;;;;;;4897327;29;20201;-77
2021/12/15 05:47:39;;;;;;;28.60;16.97;;;6.40;99.90;;;;;;4898446;29;20433;-78
2021/12/15 05:50:12;;;;;;;27.63;15.17;;;6.40;99.90;;;;;;4898346;29;20424;-78
2021/12/15 05:52:38;;;;;;;21.37;14.10;;;6.40;99.90;;;;;;4898398;29;20454;-76
2021/12/15 05:55:07;;;;;;;26.23;15.00;;;6.40;99.90;;;;;;4898222;29;20424;-77
2021/12/15 05:57:33;;;;;;;23.10;15.00;;;6.50;99.90;;;;;;4898348;29;20956;-78
2021/12/15 05:59:59;;;;;;;23.67;13.77;;;6.40;99.90;;;;;;4898395;29;20422;-77
2021/12/15 06:02:25;;;;;;;23.57;13.73;;;6.50;99.90;;;;;;4897752;29;20499;-77
2021/12/15 06:04:50;;;;;;;26.40;14.20;;;6.50;99.90;;;;;;4898370;29;20191;-78
2021/12/15 06:07:16;;;;;;;20.57;13.20;;;6.50;99.90;;;;;;4898156;29;20436;-78
2021/12/15 06:09:41;;;;;;;19.73;13.70;;;6.50;99.90;;;;;;4898247;29;20231;-78
2021/12/15 06:12:09;;;;;;;19.40;13.37;;;6.50;99.90;;;;;;4897883;29;20277;-77
2021/12/15 06:14:35;;;;;;;26.47;15.07;;;6.50;99.90;;;;;;4897999;29;20216;-78
2021/12/15 06:17:06;;;;;;;25.47;14.80;;;6.50;99.90;;;;;;4898461;29;20417;-77
2021/12/15 06:19:32;;;;;;;23.47;13.37;;;6.50;99.90;;;;;;4897769;29;20690;-78
2021/12/15 06:21:58;;;;;;;22.40;13.63;;;6.50;99.90;;;;;;4897928;29;20464;-79
2021/12/15 06:24:24;;;;;;;19.83;12.97;;;6.60;99.90;;;;;;4897489;29;20509;-78
2021/12/15 06:26:50;;;;;;;20.07;12.90;;;6.60;99.90;;;;;;4897838;29;20889;-79
2021/12/15 06:29:15;;;;;;;18.93;11.90;;;6.50;99.90;;;;;;4896347;29;20216;-77
2021/12/15 06:31:41;;;;;;;22.20;13.40;;;6.50;99.90;;;;;;4897697;29;20546;-77
2021/12/15 06:34:07;;;;;;;23.17;13.27;;;6.50;99.90;;;;;;4897339;29;20180;-78
2021/12/15 06:36:33;;;;;;;20.23;13.77;;;6.60;99.90;;;;;;4897588;29;20179;-78
2021/12/15 06:39:01;;;;;;;21.47;13.03;;;6.60;99.90;;;;;;4897311;29;20184;-77
2021/12/15 06:41:27;;;;;;;18.70;12.20;;;6.60;99.90;;;;;;4897175;29;20474;-78
2021/12/15 06:43:56;;;;;;;20.20;13.60;;;6.60;99.90;;;;;;4897662;29;20794;-78
2021/12/15 06:47:21;;;;;;;20.47;13.20;;;6.60;99.90;;;;;;4897484;29;20240;-77
2021/12/15 07:00:12;;;;;;;16.60;10.87;;;6.70;99.90;;;;;;4896978;29;20802;-78
2021/12/15 07:02:39;;;;;;;15.57;11.20;;;6.60;99.90;;;;;;4896565;29;20468;-79
2021/12/15 07:05:08;;;;;;;17.07;12.53;;;6.60;99.90;;;;;;4896659;29;20477;-79
2021/12/15 07:07:34;;;;;;;19.57;11.20;;;6.60;99.90;;;;;;4896633;29;20430;-77
2021/12/15 07:10:00;;;;;;;14.00;10.87;;;6.60;99.90;;;;;;4896540;29;20471;-76
2021/12/15 07:12:26;;;;;;;19.17;12.70;;;6.70;99.90;;;;;;4896502;29;20455;-76
2021/12/15 07:14:52;;;;;;;20.00;12.47;;;6.70;99.90;;;;;;4896615;29;20430;-76
2021/12/15 07:17:22;;;;;;;17.40;11.23;;;6.70;99.90;;;;;;4896575;29;20188;-74
2021/12/15 07:22:33;;;;;;;20.37;12.13;;;6.70;99.90;;;;;;4896379;29;20847;-75
2021/12/15 07:25:00;;;;;;;19.07;12.30;;;6.70;99.90;;;;;;4896477;29;20435;-75
2021/12/15 07:27:26;;;;;;;19.40;12.67;;;6.70;99.90;;;;;;4896478;29;20528;-76
2021/12/15 07:29:51;;;;;;;23.57;12.90;;;6.70;99.90;;;;;;4896300;29;20504;-76
2021/12/15 07:32:17;;;;;;;23.40;12.23;;;6.70;99.90;;;;;;4896252;29;20226;-75
2021/12/15 07:34:43;;;;;;;20.40;13.37;;;6.70;99.90;;;;;;4896389;29;20661;-76
2021/12/15 07:37:09;;;;;;;26.23;14.93;;;6.70;99.90;;;;;;4896493;29;20514;-75
2021/12/15 07:39:36;;;;;;;24.60;15.00;;;6.60;99.90;;;;;;4896198;29;20654;-76
2021/12/15 07:42:06;;;;;;;25.63;15.10;;;6.60;99.90;;;;;;4896478;29;20208;-76
2021/12/15 07:44:32;;;;;;;20.27;13.30;;;6.70;99.90;;;;;;4896270;29;20925;-75
2021/12/15 07:46:58;;;;;;;19.70;13.60;;;6.70;99.90;;;;;;4896566;29;20424;-77
2021/12/15 07:49:25;;;;;;;24.20;14.37;;;6.70;99.90;;;;;;4896066;29;20923;-76
2021/12/15 07:52:01;;;;;;;19.83;14.20;;;6.70;99.90;;;;;;4896406;29;20269;-76
2021/12/15 07:54:32;;;;;;;22.20;13.80;;;6.60;99.90;;;;;;4896261;29;20917;-77
2021/12/15 07:56:59;;;;;;;26.17;15.07;;;6.60;99.90;;;;;;4897403;29;20483;-77
2021/12/15 07:59:25;;;;;;;23.50;14.93;;;6.60;99.90;;;;;;4896005;29;20500;-75
2021/12/15 08:01:51;;;;;;;20.17;13.90;;;6.60;99.90;;;;;;4894843;29;20469;-76
2021/12/15 08:04:18;;;;;;;21.27;13.37;;;6.60;99.90;;;;;;4895851;29;20416;-76
2021/12/15 08:06:45;;;;;;;22.23;14.57;;;6.60;99.90;;;;;;4896136;29;21114;-76
2021/12/15 08:09:12;;;;;;;22.30;14.40;;;6.60;99.90;;;;;;4895855;29;20429;-75
2021/12/15 08:11:38;;;;;;;21.13;14.27;;;6.70;99.90;;;;;;4893198;29;20469;-76
2021/12/15 08:14:03;;;;;;;20.70;13.90;;;6.60;99.90;;;;;;4894622;29;20433;-75
2021/12/15 08:16:29;;;;;;;29.20;13.70;;;6.60;99.90;;;;;;4895856;29;20425;-76
2021/12/15 08:18:55;;;;;;;21.20;14.67;;;6.60;99.90;;;;;;4896004;29;20189;-78
2021/12/15 08:21:20;;;;;;;19.70;11.83;;;6.60;99.90;;;;;;4895769;29;20206;-75
2021/12/15 08:23:46;;;;;;;19.97;12.10;;;6.60;99.90;;;;;;4895674;29;20418;-76
2021/12/15 08:26:12;;;;;;;21.87;13.27;;;6.60;99.90;;;;;;4896029;29;20189;-75
2021/12/15 08:28:37;;;;;;;16.23;11.13;;;6.60;99.90;;;;;;4895973;29;20271;-77
2021/12/15 08:31:04;;;;;;;21.50;12.60;;;6.60;99.90;;;;;;4895740;29;20215;-76
2021/12/15 08:33:30;;;;;;;20.97;12.20;;;6.60;99.90;;;;;;4895670;29;20669;-74
2021/12/15 08:35:59;;;;;;;17.63;11.53;;;6.60;99.90;;;;;;4895989;29;20400;-75
2021/12/15 08:38:26;;;;;;;17.17;11.40;;;6.50;99.90;;;;;;4895805;29;20184;-76
2021/12/15 08:40:53;;;;;;;18.57;11.77;;;6.50;99.90;;;;;;4895919;29;20538;-75
2021/12/15 08:43:19;;;;;;;17.60;11.47;;;6.60;99.90;;;;;;4898690;29;20445;-77
2021/12/15 08:46:01;;;;;;;16.47;10.57;;;6.60;99.90;;;;;;4899246;29;20496;-76
2021/12/15 08:48:30;;;;;;;17.20;10.10;;;6.60;99.90;;;;;;4899616;29;20902;-77
2021/12/15 08:50:56;;;;;;;17.17;11.83;;;6.60;99.90;;;;;;4899274;29;20521;-75
2021/12/15 08:53:22;;;;;;;15.83;10.27;;;6.60;99.90;;;;;;4899112;29;20508;-76
2021/12/15 08:55:49;;;;;;;15.87;9.60;;;6.60;99.90;;;;;;4899154;29;20212;-76
2021/12/15 08:58:18;;;;;;;14.73;9.67;;;6.60;99.90;;;;;;4898819;29;20427;-76
2021/12/15 09:00:45;;;;;;;16.83;10.13;;;6.60;99.90;;;;;;4898872;29;20423;-76
2021/12/15 09:03:13;;;;;;;14.10;9.33;;;6.70;99.90;;;;;;4898535;29;20470;-76
2021/12/15 09:05:42;;;;;;;14.40;8.77;;;6.70;99.90;;;;;;4899033;29;20432;-76
2021/12/15 09:08:08;;;;;;;13.27;9.20;;;6.70;99.90;;;;;;4898845;29;20918;-75
2021/12/15 09:10:36;;;;;;;11.90;7.50;;;6.70;99.90;;;;;;4898976;29;20419;-76
2021/12/15 09:13:03;;;;;;;10.13;7.10;;;6.70;99.90;;;;;;4898567;29;20425;-77
2021/12/15 09:15:29;;;;;;;10.87;8.33;;;6.70;99.90;;;;;;4898858;29;20937;-77
2021/12/15 09:17:55;;;;;;;10.50;8.37;;;6.60;99.90;;;;;;4893798;29;20822;-76
2021/12/15 09:20:25;;;;;;;10.77;7.67;;;6.60;99.90;;;;;;4894070;29;20424;-76
2021/12/15 09:22:51;;;;;;;10.73;8.13;;;6.60;99.90;;;;;;4898875;29;20473;-78
2021/12/15 09:25:17;;;;;;;12.33;7.40;;;6.60;99.90;;;;;;4898766;29;20437;-76
2021/12/15 09:27:44;;;;;;;12.47;8.30;;;6.60;99.90;;;;;;4898520;29;20428;-76
2021/12/15 09:30:15;;;;;;;10.97;7.00;;;6.60;99.90;;;;;;4898391;29;20511;-76
2021/12/15 09:32:40;;;;;;;18.30;7.40;;;6.60;99.90;;;;;;4898341;29;20456;-76
2021/12/15 09:35:07;;;;;;;9.33;6.90;;;6.70;99.90;;;;;;4898357;29;20435;-76
2021/12/15 09:37:33;;;;;;;11.50;7.70;;;6.60;99.90;;;;;;4898346;29;20219;-76
2021/12/15 09:39:59;;;;;;;11.07;7.20;;;6.70;99.90;;;;;;4898314;29;20416;-77
2021/12/15 09:42:31;;;;;;;11.80;6.53;;;6.70;99.90;;;;;;4898056;29;20214;-76
2021/12/15 09:45:05;;;;;;;8.60;6.73;;;6.80;99.90;;;;;;4897269;29;20670;-76
2021/12/15 09:56:39;;;;;;;8.53;6.57;;;6.70;99.90;;;;;;4898188;29;20427;-76
2021/12/15 10:17:27;;;;;;;7.33;5.60;;;6.80;99.90;;;;;;4898164;29;20484;-77
2021/12/15 10:18:10;;;;;;;8.80;6.50;;;6.70;99.90;;;;;;4897697;29;20858;-78
2021/12/15 10:20:37;;;;;;;8.07;5.00;;;6.70;99.90;;;;;;4897572;29;20448;-77
2021/12/15 10:23:06;;;;;;;6.10;5.20;;;6.70;99.90;;;;;;4897178;29;20466;-76
2021/12/15 10:25:37;;;;;;;5.47;4.47;;;6.60;99.90;;;;;;4897690;29;20431;-79
2021/12/15 10:28:10;;;;;;;5.17;4.67;;;6.70;99.90;;;;;;4897401;29;20792;-76
2021/12/15 10:31:11;;;;;;;7.80;6.47;;;6.70;99.90;;;;;;4897802;29;20425;-78
2021/12/15 10:33:42;;;;;;;6.07;5.47;;;6.70;99.90;;;;;;4893535;29;20427;-77
2021/12/15 10:36:14;;;;;;;5.67;4.60;;;6.70;99.90;;;;;;4897970;29;20419;-76
2021/12/15 10:38:45;;;;;;;5.43;4.93;;;6.70;99.90;;;;;;4897194;29;20420;-77
2021/12/15 10:41:22;;;;;;;6.90;5.40;;;6.70;99.90;;;;;;4897132;29;20526;-78
2021/12/15 10:44:02;;;;;;;6.00;3.90;;;6.70;99.90;;;;;;4897114;29;20460;-77
2021/12/15 10:46:35;;;;;;;4.37;3.87;;;6.80;99.90;;;;;;4897646;29;20413;-76
2021/12/15 10:49:05;;;;;;;10.00;3.23;;;6.70;99.90;;;;;;4897046;29;20886;-76
2021/12/15 10:51:44;;;;;;;5.30;4.70;;;6.70;99.90;;;;;;4897231;29;20434;-76
2021/12/15 10:54:13;;;;;;;5.87;5.27;;;6.70;99.90;;;;;;4896633;29;20408;-76
2021/12/15 10:56:57;;;;;;;6.00;5.40;;;6.70;99.90;;;;;;4897229;29;20404;-76
2021/12/15 10:59:24;;;;;;;7.03;6.30;;;6.60;99.90;;;;;;4896912;29;20467;-78
2021/12/15 11:01:55;;;;;;;8.40;6.47;;;6.60;99.90;;;;;;4897065;29;20465;-77
2021/12/15 11:04:25;;;;;;;5.97;5.40;;;6.60;99.90;;;;;;4896385;29;21219;-76
2021/12/15 11:07:12;;;;;;;7.47;5.63;;;6.60;99.90;;;;;;4897172;29;20420;-76
2021/12/15 11:09:49;;;;;;;6.27;5.57;;;6.60;99.90;;;;;;4896903;29;20497;-77
2021/12/15 11:12:17;;;;;;;6.33;5.10;;;6.70;99.90;;;;;;4896790;29;20533;-78
2021/12/15 11:14:49;;;;;;;6.03;5.13;;;6.70;99.90;;;;;;4896716;29;20776;-77
2021/12/15 11:17:16;;;;;;;6.90;6.03;;;6.70;99.90;;;;;;4896831;29;20817;-77
2021/12/15 11:19:57;;;;;;;6.73;5.97;;;6.70;99.90;;;;;;4896604;29;20415;-77
2021/12/15 11:22:39;;;;;;;9.03;6.40;;;6.60;99.90;;;;;;4896451;29;20566;-76
2021/12/15 11:25:20;;;;;;;8.23;6.63;;;6.70;99.90;;;;;;4896342;29;20416;-76
2021/12/15 11:27:53;;;;;;;8.43;7.23;;;6.60;99.90;;;;;;4896545;29;20922;-76
2021/12/15 11:30:40;;;;;;;9.17;7.37;;;6.60;99.90;;;;;;4896497;29;20881;-77
2021/12/15 11:33:16;;;;;;;7.77;6.97;;;6.70;99.90;;;;;;4896056;29;20957;-78
2021/12/15 11:36:06;;;;;;;7.30;6.60;;;6.70;99.90;;;;;;4896536;29;20486;-77
2021/12/15 11:38:41;;;;;;;7.87;6.10;;;6.70;99.90;;;;;;4896465;29;20852;-76
2021/12/15 11:41:20;;;;;;;12.53;6.50;;;6.70;99.90;;;;;;4896199;29;20438;-76
2021/12/15 11:43:52;;;;;;;11.20;7.60;;;6.70;99.90;;;;;;4896146;29;20426;-76
2021/12/15 11:46:17;;;;;;;7.00;6.30;;;6.70;99.90;;;;;;4896291;29;20484;-77
2021/12/15 11:48:45;;;;;;;8.20;7.20;;;6.70;99.90;;;;;;4896158;29;20389;-76
2021/12/15 11:51:12;;;;;;;15.00;7.30;;;6.70;99.90;;;;;;4896094;29;20201;-77
2021/12/15 11:53:45;;;;;;;9.70;7.33;;;6.70;99.90;;;;;;4896076;29;20510;-77
2021/12/15 11:56:24;;;;;;;9.77;7.00;;;6.60;99.90;;;;;;4896353;29;20411;-76
2021/12/15 11:58:53;;;;;;;13.43;7.13;;;6.70;99.90;;;;;;4896155;29;20420;-77
2021/12/15 12:01:44;;;;;;;8.53;7.50;;;6.60;99.90;;;;;;4895948;29;20459;-77
2021/12/15 12:04:24;;;;;;;9.40;6.87;;;6.70;99.90;;;;;;4893186;29;20427;-76
2021/12/15 12:06:53;;;;;;;9.70;7.37;;;6.70;99.90;;;;;;4896412;29;20904;-76
2021/12/15 12:09:21;;;;;;;9.67;7.47;;;6.70;99.90;;;;;;4895875;29;20573;-76
2021/12/15 12:11:54;;;;;;;8.23;7.43;;;6.80;99.90;;;;;;4896123;29;20445;-76
2021/12/15 12:14:29;;;;;;;10.63;7.20;;;6.70;99.90;;;;;;4895818;29;20434;-76
2021/12/15 12:16:54;;;;;;;7.97;7.17;;;6.70;99.90;;;;;;4897497;29;20711;-76
2021/12/15 12:19:20;;;;;;;7.17;6.47;;;6.70;99.90;;;;;;4899434;29;20562;-76
2021/12/15 12:21:46;;;;;;;8.13;6.20;;;6.70;99.90;;;;;;4899680;29;20222;-75
2021/12/15 12:24:17;;;;;;;9.57;6.87;;;6.60;99.90;;;;;;4899345;29;20665;-78
2021/12/15 12:26:45;;;;;;;7.93;6.83;;;6.60;99.90;;;;;;4898524;29;20277;-76
2021/12/15 12:29:11;;;;;;;8.73;7.20;;;6.70;99.90;;;;;;4899360;29;20479;-76
2021/12/15 12:31:37;;;;;;;8.10;6.77;;;6.60;99.90;;;;;;4899448;29;20465;-76
2021/12/15 12:34:02;;;;;;;10.03;7.53;;;6.70;99.90;;;;;;4899282;29;20426;-77
2021/12/15 12:36:32;;;;;;;7.53;6.67;;;6.70;99.90;;;;;;4899414;29;20178;-76
2021/12/15 12:39:10;;;;;;;8.83;7.27;;;6.70;99.90;;;;;;4899360;29;20182;-76
2021/12/15 12:41:49;;;;;;;8.30;7.10;;;6.70;99.90;;;;;;4899699;29;20414;-76
2021/12/15 12:44:14;;;;;;;8.73;7.43;;;6.80;99.90;;;;;;4899167;29;20447;-76
2021/12/15 12:46:54;;;;;;;8.20;7.00;;;6.80;99.90;;;;;;4899361;29;20452;-76
2021/12/15 13:00:52;;;;;;;7.30;6.20;;;6.60;99.90;;;;;;4899148;29;20432;-77
2021/12/15 13:03:27;;;;;;;7.03;6.33;;;6.50;99.90;;;;;;4898775;29;20463;-76
2021/12/15 13:05:56;;;;;;;7.40;6.20;;;6.50;99.90;;;;;;4899122;29;20464;-76
2021/12/15 13:08:42;;;;;;;6.97;6.20;;;6.40;99.90;;;;;;4898637;29;21274;-76
2021/12/15 13:11:09;;;;;;;7.63;6.00;;;6.50;99.90;;;;;;4898705;29;20927;-75
2021/12/15 13:14:04;;;;;;;6.87;6.17;;;6.50;99.90;;;;;;4898578;29;20420;-76
2021/12/15 13:16:32;;;;;;;6.70;5.80;;;6.50;99.90;;;;;;4898654;29;20415;-76
2021/12/15 13:19:20;;;;;;;7.20;6.47;;;6.50;99.90;;;;;;4898514;29;20455;-76
2021/12/15 13:22:17;;;;;;;8.03;6.40;;;6.50;99.90;;;;;;4894678;29;20471;-76
2021/12/15 13:30:50;;;;;;;9.80;7.20;;;6.50;99.90;;;;;;4898439;29;21058;-75
2021/12/15 13:33:31;;;;;;;6.87;6.27;;;6.50;99.90;;;;;;4898210;29;20416;-77
2021/12/15 13:35:56;;;;;;;8.00;6.03;;;6.60;99.90;;;;;;4898503;29;20412;-77
2021/12/15 13:38:37;;;;;;;6.47;5.97;;;6.50;99.90;;;;;;4898164;29;20834;-79
2021/12/15 13:42:00;;;;;;;6.90;6.30;;;6.50;99.90;;;;;;4898144;29;20204;-76
2021/12/15 13:44:37;;;;;;;7.10;6.40;;;6.40;99.90;;;;;;4896794;29;20429;-76
2021/12/15 13:47:09;;;;;;;5.77;5.37;;;6.30;99.90;;;;;;4898317;29;20499;-76
2021/12/15 13:49:52;;;;;;;6.30;5.43;;;6.30;99.90;;;;;;4898162;29;20416;-77
2021/12/15 13:52:34;;;;;;;7.60;6.07;;;6.40;99.90;;;;;;4898145;29;20512;-76
2021/12/15 13:55:17;;;;;;;6.80;6.20;;;6.40;99.90;;;;;;4897879;29;20408;-76
2021/12/15 13:57:45;;;;;;;5.70;5.20;;;6.40;99.90;;;;;;4898206;29;20448;-77
2021/12/15 14:00:21;;;;;;;6.80;6.20;;;6.40;99.90;;;;;;4897823;29;20416;-78
2021/12/15 14:03:10;;;;;;;6.63;6.03;;;6.30;99.90;;;;;;4897751;29;20872;-75
2021/12/15 14:06:03;;;;;;;5.90;5.40;;;6.30;99.90;;;;;;4898001;29;20481;-77
2021/12/15 14:08:34;;;;;;;5.87;5.27;;;6.30;99.90;;;;;;4897912;29;20416;-77
2021/12/15 14:11:07;;;;;;;6.20;5.60;;;6.30;99.90;;;;;;4897682;29;20444;-76
2021/12/15 14:13:39;;;;;;;5.77;4.77;;;6.40;99.90;;;;;;4897652;29;20415;-77
2021/12/15 14:16:04;;;;;;;6.73;6.07;;;6.30;99.90;;;;;;4897812;29;20859;-76
2021/12/15 14:18:32;;;;;;;9.43;5.43;;;6.40;99.90;;;;;;4897573;29;20499;-78
2021/12/15 14:21:09;;;;;;;11.73;6.47;;;6.40;99.90;;;;;;4897545;29;20201;-76
2021/12/15 14:23:44;;;;;;;7.93;6.30;;;6.40;99.90;;;;;;4897211;29;20463;-77
2021/12/15 14:26:15;;;;;;;8.03;6.63;;;6.30;99.90;;;;;;4897422;29;20426;-76
2021/12/15 14:28:47;;;;;;;10.47;6.87;;;6.30;99.90;;;;;;4897345;29;20511;-76
2021/12/15 14:31:14;;;;;;;9.87;7.43;;;6.30;99.90;;;;;;4897929;29;20504;-77
2021/12/15 14:33:44;;;;;;;6.43;5.83;;;6.30;99.90;;;;;;4897213;29;20431;-76
2021/12/15 14:36:17;;;;;;;7.47;6.30;;;6.40;99.90;;;;;;4896047;29;20436;-77
2021/12/15 14:38:49;;;;;;;7.33;6.43;;;6.40;99.90;;;;;;4897047;29;20489;-76
2021/12/15 14:41:28;;;;;;;7.30;6.60;;;6.40;99.90;;;;;;4896972;29;20437;-77
2021/12/15 14:43:57;;;;;;;7.80;7.10;;;6.40;99.90;;;;;;4896990;29;20402;-79
2021/12/15 14:46:33;;;;;;;9.97;6.80;;;6.40;99.90;;;;;;4897155;29;20943;-79
2021/12/15 14:49:10;;;;;;;9.53;6.47;;;6.40;99.90;;;;;;4896952;29;20423;-74
2021/12/15 14:51:38;;;;;;;6.30;5.73;;;6.40;99.90;;;;;;4897212;29;20431;-77
2021/12/15 14:54:05;;;;;;;5.90;5.30;;;6.40;99.90;;;;;;4896720;29;20407;-77
2021/12/15 14:56:44;;;;;;;6.80;6.20;;;6.40;99.90;;;;;;4897199;29;20407;-77
2021/12/15 14:59:17;;;;;;;7.03;5.30;;;6.40;99.90;;;;;;4896622;29;20414;-76
2021/12/15 15:01:44;;;;;;;6.27;5.67;;;6.40;99.90;;;;;;4897038;29;20809;-76
2021/12/15 15:04:10;;;;;;;5.70;5.20;;;6.50;99.90;;;;;;4896492;29;20416;-77
2021/12/15 15:06:36;;;;;;;6.20;5.60;;;6.50;99.90;;;;;;4897103;29;20421;-77
2021/12/15 15:09:33;;;;;;;7.40;5.30;;;6.50;99.90;;;;;;4896674;29;20424;-76
2021/12/15 15:12:04;;;;;;;6.70;6.10;;;6.40;99.90;;;;;;4896421;29;20456;-77
2021/12/15 15:14:36;;;;;;;6.23;5.53;;;6.40;99.90;;;;;;4896486;29;20500;-79
2021/12/15 15:17:04;;;;;;;6.03;5.07;;;6.40;99.90;;;;;;4896806;29;20424;-77
2021/12/15 15:19:31;;;;;;;6.20;5.60;;;6.40;99.90;;;;;;4896640;29;20765;-75
2021/12/15 15:21:59;;;;;;;7.47;5.57;;;6.40;99.90;;;;;;4896589;29;20455;-77
2021/12/15 15:24:33;;;;;;;6.43;5.83;;;6.40;99.90;;;;;;4896425;29;20430;-77
2021/12/15 15:27:03;;;;;;;6.60;4.80;;;6.40;99.90;;;;;;4896647;29;20410;-77
2021/12/15 15:29:37;;;;;;;7.00;6.27;;;6.50;99.90;;;;;;4896336;29;20417;-77
2021/12/15 15:32:24;;;;;;;6.20;5.40;;;6.40;99.90;;;;;;4896314;29;20493;-78
2021/12/15 15:34:53;;;;;;;7.70;6.47;;;6.40;99.90;;;;;;4890586;29;20784;-76
2021/12/15 15:37:33;;;;;;;7.60;6.80;;;6.40;99.90;;;;;;4881946;29;20790;-77
2021/12/15 15:40:28;;;;;;;8.10;7.30;;;6.50;99.90;;;;;;4877911;29;20505;-77
2021/12/15 15:43:00;;;;;;;5.77;5.27;;;6.50;99.90;;;;;;4877453;29;20502;-78
2021/12/15 15:45:30;;;;;;;5.43;4.93;;;6.40;99.90;;;;;;4877764;29;20970;-76
2021/12/15 15:47:57;;;;;;;6.47;4.97;;;6.30;99.90;;;;;;4878400;29;20447;-80
2021/12/15 15:50:25;;;;;;;6.80;5.77;;;6.30;99.90;;;;;;4879285;29;20465;-79
2021/12/15 15:52:53;;;;;;;5.80;4.73;;;6.30;99.90;;;;;;4881628;29;20433;-78
2021/12/15 15:55:20;;;;;;;5.53;5.03;;;6.30;99.90;;;;;;4881723;29;20424;-77
2021/12/15 15:58:07;;;;;;;5.00;4.40;;;6.30;99.90;;;;;;4881893;29;20459;-77
2021/12/15 16:00:37;;;;;;;8.23;6.00;;;6.30;99.90;;;;;;4881824;29;21114;-76
2021/12/15 16:03:07;;;;;;;5.87;5.30;;;6.30;99.90;;;;;;4881397;29;21077;-78
2021/12/15 16:05:32;;;;;;;5.17;4.67;;;6.30;99.90;;;;;;4881869;29;20857;-78
2021/12/15 16:07:58;;;;;;;13.13;10.70;;;6.30;99.90;;;;;;4881763;29;20525;-78
2021/12/15 16:10:27;;;;;;;6.43;5.73;;;6.30;99.90;;;;;;4881555;29;20187;-77
2021/12/15 16:12:56;;;;;;;9.77;6.03;;;6.30;99.90;;;;;;4881187;29;20213;-76
2021/12/15 16:15:36;;;;;;;6.50;5.90;;;6.30;99.90;;;;;;4881482;29;20482;-78
2021/12/15 16:18:01;;;;;;;6.47;5.87;;;6.20;99.90;;;;;;4881540;29;20429;-77
2021/12/15 16:20:58;;;;;;;7.90;5.93;;;6.20;99.90;;;;;;4881261;29;20943;-77
2021/12/15 16:23:22;;;;;;;6.53;5.83;;;6.20;99.90;;;;;;4880913;29;20256;-77
2021/12/15 16:25:51;;;;;;;7.20;6.60;;;6.20;99.90;;;;;;4881455;29;20947;-78
2021/12/15 16:28:19;;;;;;;6.40;5.80;;;6.10;99.90;;;;;;4881121;29;20399;-77
2021/12/15 16:30:56;;;;;;;6.13;5.63;;;6.10;99.90;;;;;;4881214;29;20776;-77
2021/12/15 16:33:32;;;;;;;6.87;5.87;;;6.10;99.90;;;;;;4881399;29;20433;-77
2021/12/15 16:36:00;;;;;;;6.27;5.63;;;6.10;99.90;;;;;;4882482;29;20421;-79
2021/12/15 16:38:31;;;;;;;8.37;6.23;;;6.20;99.90;;;;;;4882176;29;20506;-79
2021/12/15 16:41:32;;;;;;;6.50;5.80;;;6.20;99.90;;;;;;4881902;29;20531;-79
2021/12/15 16:44:20;;;;;;;7.50;6.40;;;6.30;99.90;;;;;;4881932;29;20417;-80
2021/12/15 16:46:58;;;;;;;7.33;6.73;;;6.20;99.90;;;;;;4881890;29;20419;-82
2021/12/15 16:49:41;;;;;;;7.40;6.60;;;6.20;99.90;;;;;;4880215;29;20435;-79
2021/12/15 16:52:25;;;;;;;10.87;7.73;;;6.20;99.90;;;;;;4881275;29;20438;-79
2021/12/15 16:55:21;;;;;;;10.63;8.40;;;6.20;99.90;;;;;;4881039;29;20422;-78
2021/12/15 16:57:49;;;;;;;9.70;8.33;;;6.20;99.90;;;;;;4873067;29;20880;-79
2021/12/15 17:00:22;;;;;;;11.10;9.03;;;6.20;99.90;;;;;;4880737;29;20412;-78
2021/12/15 17:02:54;;;;;;;11.53;9.30;;;6.20;99.90;;;;;;4879833;29;20559;-77
2021/12/15 17:05:30;;;;;;;9.77;8.07;;;6.10;99.90;;;;;;4881029;29;20423;-78
2021/12/15 17:08:00;;;;;;;12.57;9.37;;;6.20;99.90;;;;;;4880820;29;20470;-78
2021/12/15 17:10:36;;;;;;;8.50;7.60;;;6.20;99.90;;;;;;4880322;29;20421;-79
2021/12/15 17:13:10;;;;;;;13.83;9.10;;;6.20;99.90;;;;;;4880295;29;20905;-79
2021/12/15 17:18:25;;;;;;;22.47;12.80;;;6.20;99.90;;;;;;4892970;29;20428;-78
2021/12/15 17:21:10;;;;;;;16.73;10.73;;;6.20;99.90;;;;;;4896022;29;20518;-78
2021/12/15 17:23:37;;;;;;;12.57;10.57;;;6.20;99.90;;;;;;4893652;29;20508;-78
2021/12/15 17:26:26;;;;;;;9.83;8.37;;;6.20;99.90;;;;;;4898397;29;20838;-78
2021/12/15 17:28:56;;;;;;;9.77;8.77;;;6.20;99.90;;;;;;4881715;29;20453;-78
2021/12/15 17:31:28;;;;;;;10.03;8.50;;;6.20;99.90;;;;;;4897783;29;21180;-78
2021/12/15 17:34:07;;;;;;;10.03;8.03;;;6.10;99.90;;;;;;4898105;29;20517;-80
2021/12/15 17:36:35;;;;;;;9.70;7.27;;;6.10;99.90;;;;;;4898256;29;20426;-80
2021/12/15 17:39:24;;;;;;;8.10;7.30;;;6.20;99.90;;;;;;4898089;29;20878;-79
2021/12/15 17:42:08;;;;;;;8.67;7.77;;;6.10;99.90;;;;;;4897364;29;20515;-78
2021/12/15 17:44:42;;;;;;;9.73;8.10;;;6.20;99.90;;;;;;4897936;29;20426;-78
2021/12/15 17:47:22;;;;;;;11.20;9.07;;;6.10;99.90;;;;;;4898121;29;20405;-78
2021/12/15 17:50:02;;;;;;;13.60;11.20;;;6.10;99.90;;;;;;4892011;29;20966;-78
2021/12/15 17:52:42;;;;;;;11.10;9.50;;;6.00;99.90;;;;;;4897264;29;20906;-81
2021/12/15 17:55:13;;;;;;;12.63;9.47;;;6.10;99.90;;;;;;4897888;29;20435;-80
2021/12/15 17:57:52;;;;;;;12.67;10.03;;;6.10;99.90;;;;;;4898170;29;20430;-78
2021/12/15 18:00:30;;;;;;;13.17;9.53;;;6.10;99.90;;;;;;4897837;29;20483;-77
2021/12/15 18:02:58;;;;;;;14.17;10.70;;;6.00;99.90;;;;;;4897872;29;20479;-82
2021/12/15 18:05:24;;;;;;;14.70;10.13;;;6.00;99.90;;;;;;4897736;29;20483;-76
2021/12/15 18:07:50;;;;;;;13.70;10.30;;;6.00;99.90;;;;;;4897844;29;20419;-81
2021/12/15 18:10:28;;;;;;;10.33;8.90;;;5.90;99.90;;;;;;4897647;29;20957;-78
2021/12/15 18:12:54;;;;;;;11.73;9.93;;;5.90;99.90;;;;;;4896478;29;20213;-78
2021/12/15 18:15:20;;;;;;;13.47;10.17;;;6.00;99.90;;;;;;4894214;29;20486;-78
2021/12/15 18:17:46;;;;;;;11.43;8.90;;;6.00;99.90;;;;;;4897272;29;20469;-78
2021/12/15 18:20:12;;;;;;;12.00;9.73;;;6.00;99.90;;;;;;4896891;29;20215;-78
2021/12/15 18:22:38;;;;;;;10.03;9.00;;;6.00;99.90;;;;;;4896977;29;20237;-77
2021/12/15 18:25:05;;;;;;;9.57;8.63;;;5.90;99.90;;;;;;4892044;29;20478;-78
2021/12/15 18:27:31;;;;;;;11.63;9.67;;;5.90;99.90;;;;;;4890562;29;20461;-78
2021/12/15 18:29:57;;;;;;;12.40;9.73;;;5.90;99.90;;;;;;4896824;29;20478;-78
2021/12/15 18:32:25;;;;;;;13.93;9.97;;;5.90;99.90;;;;;;4896959;29;20470;-78
2021/12/15 18:34:53;;;;;;;9.90;8.87;;;6.00;99.90;;;;;;4896479;29;20491;-78
2021/12/15 18:37:22;;;;;;;11.60;9.77;;;6.00;99.90;;;;;;4885052;29;20848;-76
2021/12/15 18:39:49;;;;;;;10.43;9.40;;;6.00;99.90;;;;;;4896575;29;20482;-78
2021/12/15 18:42:19;;;;;;;9.30;8.40;;;5.90;99.90;;;;;;4896743;29;20464;-77